sensor_id;sensor_type;location;lat;lon;timestamp;P1;durP1;ratioP1;P2;durP2;ratioP2
7919;SDS011;18778;47.610;9.776;2023-07-30T00:01:39;3.73;;;2.10;;
7919;SDS011;18778;47.610;9.776;2023-07-30T00:04:05;2.37;;;2.17;;
7919;SDS011;18778;47.610;9.776;2023-07-30T00:06:30;2.20;;;2.10;;
7919;SDS011;18778;47.610;9.776;2023-07-30T00:08:56;2.30;;;2.10;;
7919;SDS011;18778;47.610;9.776;2023-07-30T00:11:22;3.17;;;2.50;;
7919;SDS011;18778;47.610;9.776;2023-07-30T00:13:47;2.23;;;2.03;;
7919;SDS011;18778;47.610;9.776;2023-07-30T00:16:13;1.73;;;1.63;;
7919;SDS011;18778;47.610;9.776;2023-07-30T00:18:39;2.10;;;2.00;;
7919;SDS011;18778;47.610;9.776;2023-07-30T00:21:04;2.37;;;2.20;;
7919;SDS011;18778;47.610;9.776;2023-07-30T00:23:30;2.00;;;1.80;;
7919;SDS011;18778;47.610;9.776;2023-07-30T00:25:55;2.00;;;1.90;;
7919;SDS011;18778;47.610;9.776;2023-07-30T00:28:21;2.20;;;2.00;;
7919;SDS011;18778;47.610;9.776;2023-07-30T00:30:46;2.67;;;1.60;;
7919;SDS011;18778;47.610;9.776;2023-07-30T00:33:12;2.20;;;2.00;;
7919;SDS011;18778;47.610;9.776;2023-07-30T00:35:38;1.73;;;1.63;;
7919;SDS011;18778;47.610;9.776;2023-07-30T00:38:03;2.70;;;1.80;;
7919;SDS011;18778;47.610;9.776;2023-07-30T00:40:29;2.30;;;2.03;;
7919;SDS011;18778;47.610;9.776;2023-07-30T00:42:54;1.90;;;1.80;;
7919;SDS011;18778;47.610;9.776;2023-07-30T00:45:20;2.07;;;1.87;;
7919;SDS011;18778;47.610;9.776;2023-07-30T00:47:46;1.93;;;1.83;;
7919;SDS011;18778;47.610;9.776;2023-07-30T00:50:12;1.87;;;1.77;;
7919;SDS011;18778;47.610;9.776;2023-07-30T00:52:40;1.97;;;1.60;;
7919;SDS011;18778;47.610;9.776;2023-07-30T00:55:06;2.20;;;1.73;;
7919;SDS011;18778;47.610;9.776;2023-07-30T00:57:34;2.53;;;1.97;;
7919;SDS011;18778;47.610;9.776;2023-07-30T01:00:02;3.03;;;1.57;;
7919;SDS011;18778;47.610;9.776;2023-07-30T01:02:31;1.90;;;1.80;;
7919;SDS011;18778;47.610;9.776;2023-07-30T01:04:56;1.90;;;1.80;;
7919;SDS011;18778;47.610;9.776;2023-07-30T01:07:24;4.40;;;1.77;;
7919;SDS011;18778;47.610;9.776;2023-07-30T01:09:50;2.40;;;1.53;;
7919;SDS011;18778;47.610;9.776;2023-07-30T01:12:16;2.60;;;1.80;;
7919;SDS011;18778;47.610;9.776;2023-07-30T01:14:42;1.80;;;1.70;;
7919;SDS011;18778;47.610;9.776;2023-07-30T01:17:10;3.30;;;2.00;;
7919;SDS011;18778;47.610;9.776;2023-07-30T01:19:36;3.27;;;1.70;;
7919;SDS011;18778;47.610;9.776;2023-07-30T01:22:02;1.67;;;1.57;;
7919;SDS011;18778;47.610;9.776;2023-07-30T01:24:28;2.00;;;1.90;;
7919;SDS011;18778;47.610;9.776;2023-07-30T01:26:59;2.13;;;1.90;;
7919;SDS011;18778;47.610;9.776;2023-07-30T01:29:33;2.03;;;1.87;;
7919;SDS011;18778;47.610;9.776;2023-07-30T01:32:11;1.80;;;1.70;;
7919;SDS011;18778;47.610;9.776;2023-07-30T01:34:37;2.13;;;2.00;;
7919;SDS011;18778;47.610;9.776;2023-07-30T01:37:05;4.47;;;2.20;;
7919;SDS011;18778;47.610;9.776;2023-07-30T01:39:34;2.33;;;2.13;;
7919;SDS011;18778;47.610;9.776;2023-07-30T01:42:03;2.40;;;2.10;;
7919;SDS011;18778;47.610;9.776;2023-07-30T01:44:29;6.00;;;2.00;;
7919;SDS011;18778;47.610;9.776;2023-07-30T01:46:54;2.30;;;2.20;;
7919;SDS011;18778;47.610;9.776;2023-07-30T01:49:20;2.57;;;1.87;;
7919;SDS011;18778;47.610;9.776;2023-07-30T01:51:45;2.20;;;2.00;;
7919;SDS011;18778;47.610;9.776;2023-07-30T01:54:11;2.93;;;1.90;;
7919;SDS011;18778;47.610;9.776;2023-07-30T01:56:37;2.03;;;1.93;;
7919;SDS011;18778;47.610;9.776;2023-07-30T01:59:02;2.20;;;2.00;;
7919;SDS011;18778;47.610;9.776;2023-07-30T02:01:28;3.10;;;2.17;;
7919;SDS011;18778;47.610;9.776;2023-07-30T02:03:53;2.07;;;1.97;;
7919;SDS011;18778;47.610;9.776;2023-07-30T02:06:19;2.20;;;2.00;;
7919;SDS011;18778;47.610;9.776;2023-07-30T02:08:44;2.63;;;2.00;;
7919;SDS011;18778;47.610;9.776;2023-07-30T02:11:10;4.90;;;2.10;;
7919;SDS011;18778;47.610;9.776;2023-07-30T02:13:36;3.33;;;2.03;;
7919;SDS011;18778;47.610;9.776;2023-07-30T02:16:01;2.37;;;2.13;;
7919;SDS011;18778;47.610;9.776;2023-07-30T02:18:27;2.20;;;2.00;;
7919;SDS011;18778;47.610;9.776;2023-07-30T02:20:52;2.40;;;2.20;;
7919;SDS011;18778;47.610;9.776;2023-07-30T02:23:18;2.93;;;2.17;;
7919;SDS011;18778;47.610;9.776;2023-07-30T02:25:43;2.20;;;2.00;;
7919;SDS011;18778;47.610;9.776;2023-07-30T02:28:09;2.60;;;2.40;;
7919;SDS011;18778;47.610;9.776;2023-07-30T02:30:35;2.30;;;2.10;;
7919;SDS011;18778;47.610;9.776;2023-07-30T02:33:01;2.67;;;2.13;;
7919;SDS011;18778;47.610;9.776;2023-07-30T02:35:27;3.43;;;2.33;;
7919;SDS011;18778;47.610;9.776;2023-07-30T02:37:53;2.50;;;2.30;;
7919;SDS011;18778;47.610;9.776;2023-07-30T02:40:19;2.60;;;2.40;;
7919;SDS011;18778;47.610;9.776;2023-07-30T02:42:45;2.60;;;2.40;;
7919;SDS011;18778;47.610;9.776;2023-07-30T02:45:11;3.20;;;2.70;;
7919;SDS011;18778;47.610;9.776;2023-07-30T02:47:37;2.40;;;2.27;;
7919;SDS011;18778;47.610;9.776;2023-07-30T02:50:03;2.90;;;2.70;;
7919;SDS011;18778;47.610;9.776;2023-07-30T02:52:29;3.13;;;2.83;;
7919;SDS011;18778;47.610;9.776;2023-07-30T02:54:55;3.30;;;2.90;;
7919;SDS011;18778;47.610;9.776;2023-07-30T02:57:21;3.03;;;2.77;;
7919;SDS011;18778;47.610;9.776;2023-07-30T02:59:47;2.50;;;2.40;;
7919;SDS011;18778;47.610;9.776;2023-07-30T03:02:13;3.60;;;2.40;;
7919;SDS011;18778;47.610;9.776;2023-07-30T03:04:39;3.23;;;2.83;;
7919;SDS011;18778;47.610;9.776;2023-07-30T03:07:05;2.87;;;2.67;;
7919;SDS011;18778;47.610;9.776;2023-07-30T03:09:31;2.67;;;2.47;;
7919;SDS011;18778;47.610;9.776;2023-07-30T03:11:58;3.87;;;2.87;;
7919;SDS011;18778;47.610;9.776;2023-07-30T03:14:24;2.60;;;2.40;;
7919;SDS011;18778;47.610;9.776;2023-07-30T03:16:50;3.10;;;2.90;;
7919;SDS011;18778;47.610;9.776;2023-07-30T03:19:16;3.30;;;3.00;;
7919;SDS011;18778;47.610;9.776;2023-07-30T03:21:41;3.27;;;2.87;;
7919;SDS011;18778;47.610;9.776;2023-07-30T03:24:07;2.70;;;2.50;;
7919;SDS011;18778;47.610;9.776;2023-07-30T03:26:33;2.80;;;2.60;;
7919;SDS011;18778;47.610;9.776;2023-07-30T03:28:59;2.90;;;2.70;;
7919;SDS011;18778;47.610;9.776;2023-07-30T03:31:25;2.60;;;2.43;;
7919;SDS011;18778;47.610;9.776;2023-07-30T03:33:53;3.17;;;2.57;;
7919;SDS011;18778;47.610;9.776;2023-07-30T03:36:19;3.10;;;2.80;;
7919;SDS011;18778;47.610;9.776;2023-07-30T03:38:45;2.70;;;2.50;;
7919;SDS011;18778;47.610;9.776;2023-07-30T03:41:11;2.93;;;2.73;;
7919;SDS011;18778;47.610;9.776;2023-07-30T03:43:37;3.10;;;2.70;;
7919;SDS011;18778;47.610;9.776;2023-07-30T03:46:03;2.73;;;2.53;;
7919;SDS011;18778;47.610;9.776;2023-07-30T03:48:29;4.03;;;2.80;;
7919;SDS011;18778;47.610;9.776;2023-07-30T03:50:55;2.90;;;2.70;;
7919;SDS011;18778;47.610;9.776;2023-07-30T03:53:21;3.30;;;3.10;;
7919;SDS011;18778;47.610;9.776;2023-07-30T03:55:47;2.73;;;2.53;;
7919;SDS011;18778;47.610;9.776;2023-07-30T03:58:13;2.83;;;2.63;;
7919;SDS011;18778;47.610;9.776;2023-07-30T04:00:39;3.27;;;2.97;;
7919;SDS011;18778;47.610;9.776;2023-07-30T04:03:05;5.47;;;2.83;;
7919;SDS011;18778;47.610;9.776;2023-07-30T04:05:31;2.80;;;2.60;;
7919;SDS011;18778;47.610;9.776;2023-07-30T04:07:57;3.30;;;2.97;;
7919;SDS011;18778;47.610;9.776;2023-07-30T04:10:22;2.83;;;2.63;;
7919;SDS011;18778;47.610;9.776;2023-07-30T04:12:48;3.00;;;2.80;;
7919;SDS011;18778;47.610;9.776;2023-07-30T04:15:15;4.33;;;2.80;;
7919;SDS011;18778;47.610;9.776;2023-07-30T04:17:41;3.00;;;2.80;;
7919;SDS011;18778;47.610;9.776;2023-07-30T04:20:07;3.10;;;2.90;;
7919;SDS011;18778;47.610;9.776;2023-07-30T04:22:36;2.77;;;2.57;;
7919;SDS011;18778;47.610;9.776;2023-07-30T04:25:02;2.97;;;2.77;;
7919;SDS011;18778;47.610;9.776;2023-07-30T04:27:28;2.93;;;2.70;;
7919;SDS011;18778;47.610;9.776;2023-07-30T04:29:54;3.33;;;2.80;;
7919;SDS011;18778;47.610;9.776;2023-07-30T04:32:20;7.07;;;2.70;;
7919;SDS011;18778;47.610;9.776;2023-07-30T04:34:46;3.53;;;2.60;;
7919;SDS011;18778;47.610;9.776;2023-07-30T04:37:12;3.30;;;3.00;;
7919;SDS011;18778;47.610;9.776;2023-07-30T04:39:38;2.63;;;2.50;;
7919;SDS011;18778;47.610;9.776;2023-07-30T04:42:04;3.00;;;2.80;;
7919;SDS011;18778;47.610;9.776;2023-07-30T04:44:30;2.67;;;2.47;;
7919;SDS011;18778;47.610;9.776;2023-07-30T04:46:56;3.47;;;2.40;;
7919;SDS011;18778;47.610;9.776;2023-07-30T04:49:22;2.70;;;2.50;;
7919;SDS011;18778;47.610;9.776;2023-07-30T04:51:48;2.60;;;2.40;;
7919;SDS011;18778;47.610;9.776;2023-07-30T04:54:14;2.53;;;2.40;;
7919;SDS011;18778;47.610;9.776;2023-07-30T04:56:41;4.20;;;2.57;;
7919;SDS011;18778;47.610;9.776;2023-07-30T04:59:06;2.23;;;2.07;;
7919;SDS011;18778;47.610;9.776;2023-07-30T05:01:32;2.87;;;2.67;;
7919;SDS011;18778;47.610;9.776;2023-07-30T05:03:58;2.53;;;2.43;;
7919;SDS011;18778;47.610;9.776;2023-07-30T05:06:24;2.77;;;2.30;;
7919;SDS011;18778;47.610;9.776;2023-07-30T05:08:50;2.10;;;2.00;;
7919;SDS011;18778;47.610;9.776;2023-07-30T05:11:16;2.50;;;2.30;;
7919;SDS011;18778;47.610;9.776;2023-07-30T05:13:42;1.90;;;1.80;;
7919;SDS011;18778;47.610;9.776;2023-07-30T05:16:09;2.20;;;2.00;;
7919;SDS011;18778;47.610;9.776;2023-07-30T05:18:35;2.33;;;2.00;;
7919;SDS011;18778;47.610;9.776;2023-07-30T05:21:00;2.23;;;2.07;;
7919;SDS011;18778;47.610;9.776;2023-07-30T05:23:26;2.13;;;1.93;;
7919;SDS011;18778;47.610;9.776;2023-07-30T05:25:52;3.53;;;2.20;;
7919;SDS011;18778;47.610;9.776;2023-07-30T05:28:18;2.37;;;2.23;;
7919;SDS011;18778;47.610;9.776;2023-07-30T05:30:44;2.17;;;1.97;;
7919;SDS011;18778;47.610;9.776;2023-07-30T05:33:10;3.43;;;2.20;;
7919;SDS011;18778;47.610;9.776;2023-07-30T05:35:36;2.20;;;2.00;;
7919;SDS011;18778;47.610;9.776;2023-07-30T05:38:02;2.50;;;2.17;;
7919;SDS011;18778;47.610;9.776;2023-07-30T05:40:28;2.20;;;2.10;;
7919;SDS011;18778;47.610;9.776;2023-07-30T05:42:54;2.50;;;2.27;;
7919;SDS011;18778;47.610;9.776;2023-07-30T05:45:20;2.43;;;1.80;;
7919;SDS011;18778;47.610;9.776;2023-07-30T05:47:46;2.40;;;1.90;;
7919;SDS011;18778;47.610;9.776;2023-07-30T05:50:12;2.03;;;1.93;;
7919;SDS011;18778;47.610;9.776;2023-07-30T05:52:38;1.90;;;1.70;;
7919;SDS011;18778;47.610;9.776;2023-07-30T05:55:05;2.30;;;2.10;;
7919;SDS011;18778;47.610;9.776;2023-07-30T05:57:31;2.30;;;2.10;;
7919;SDS011;18778;47.610;9.776;2023-07-30T05:59:56;2.43;;;2.07;;
7919;SDS011;18778;47.610;9.776;2023-07-30T06:02:22;2.30;;;2.10;;
7919;SDS011;18778;47.610;9.776;2023-07-30T06:04:48;1.93;;;1.80;;
7919;SDS011;18778;47.610;9.776;2023-07-30T06:07:14;2.40;;;2.20;;
7919;SDS011;18778;47.610;9.776;2023-07-30T06:09:40;3.63;;;2.27;;
7919;SDS011;18778;47.610;9.776;2023-07-30T06:12:06;2.27;;;2.00;;
7919;SDS011;18778;47.610;9.776;2023-07-30T06:14:32;2.00;;;1.90;;
7919;SDS011;18778;47.610;9.776;2023-07-30T06:16:58;3.13;;;2.00;;
7919;SDS011;18778;47.610;9.776;2023-07-30T06:19:24;2.10;;;1.83;;
7919;SDS011;18778;47.610;9.776;2023-07-30T06:21:51;1.87;;;1.77;;
7919;SDS011;18778;47.610;9.776;2023-07-30T06:24:17;2.67;;;1.67;;
7919;SDS011;18778;47.610;9.776;2023-07-30T06:26:43;1.90;;;1.70;;
7919;SDS011;18778;47.610;9.776;2023-07-30T06:29:09;2.40;;;1.47;;
7919;SDS011;18778;47.610;9.776;2023-07-30T06:31:35;1.80;;;1.70;;
7919;SDS011;18778;47.610;9.776;2023-07-30T06:34:01;2.07;;;1.87;;
7919;SDS011;18778;47.610;9.776;2023-07-30T06:36:27;1.83;;;1.70;;
7919;SDS011;18778;47.610;9.776;2023-07-30T06:38:53;4.40;;;1.80;;
7919;SDS011;18778;47.610;9.776;2023-07-30T06:41:19;2.13;;;1.70;;
7919;SDS011;18778;47.610;9.776;2023-07-30T06:43:46;3.13;;;1.90;;
7919;SDS011;18778;47.610;9.776;2023-07-30T06:46:12;2.13;;;1.60;;
7919;SDS011;18778;47.610;9.776;2023-07-30T06:48:38;1.90;;;1.80;;
7919;SDS011;18778;47.610;9.776;2023-07-30T06:51:05;2.57;;;1.90;;
7919;SDS011;18778;47.610;9.776;2023-07-30T06:53:32;2.80;;;1.90;;
7919;SDS011;18778;47.610;9.776;2023-07-30T06:55:58;2.20;;;1.67;;
7919;SDS011;18778;47.610;9.776;2023-07-30T06:58:24;2.00;;;1.90;;
7919;SDS011;18778;47.610;9.776;2023-07-30T07:00:49;2.40;;;1.70;;
7919;SDS011;18778;47.610;9.776;2023-07-30T07:03:15;2.40;;;1.87;;
7919;SDS011;18778;47.610;9.776;2023-07-30T07:05:40;2.17;;;1.97;;
7919;SDS011;18778;47.610;9.776;2023-07-30T07:08:06;1.90;;;1.80;;
7919;SDS011;18778;47.610;9.776;2023-07-30T07:10:31;3.00;;;2.20;;
7919;SDS011;18778;47.610;9.776;2023-07-30T07:12:57;4.13;;;2.40;;
7919;SDS011;18778;47.610;9.776;2023-07-30T07:15:22;2.20;;;2.00;;
7919;SDS011;18778;47.610;9.776;2023-07-30T07:17:48;4.10;;;2.07;;
7919;SDS011;18778;47.610;9.776;2023-07-30T07:20:13;3.50;;;1.97;;
7919;SDS011;18778;47.610;9.776;2023-07-30T07:22:39;2.20;;;2.00;;
7919;SDS011;18778;47.610;9.776;2023-07-30T07:25:04;2.00;;;1.90;;
7919;SDS011;18778;47.610;9.776;2023-07-30T07:27:30;2.07;;;1.97;;
7919;SDS011;18778;47.610;9.776;2023-07-30T07:29:56;2.10;;;1.90;;
7919;SDS011;18778;47.610;9.776;2023-07-30T07:32:22;1.90;;;1.80;;
7919;SDS011;18778;47.610;9.776;2023-07-30T07:34:47;1.90;;;1.80;;
7919;SDS011;18778;47.610;9.776;2023-07-30T07:37:14;2.17;;;1.83;;
7919;SDS011;18778;47.610;9.776;2023-07-30T07:39:43;2.27;;;1.83;;
7919;SDS011;18778;47.610;9.776;2023-07-30T07:42:11;2.00;;;1.90;;
7919;SDS011;18778;47.610;9.776;2023-07-30T07:44:37;2.20;;;2.00;;
7919;SDS011;18778;47.610;9.776;2023-07-30T07:47:03;2.70;;;1.70;;
7919;SDS011;18778;47.610;9.776;2023-07-30T07:49:29;1.90;;;1.80;;
7919;SDS011;18778;47.610;9.776;2023-07-30T07:51:54;1.80;;;1.70;;
7919;SDS011;18778;47.610;9.776;2023-07-30T07:54:20;2.03;;;1.93;;
7919;SDS011;18778;47.610;9.776;2023-07-30T07:56:45;2.30;;;2.10;;
7919;SDS011;18778;47.610;9.776;2023-07-30T07:59:11;2.67;;;2.00;;
7919;SDS011;18778;47.610;9.776;2023-07-30T08:01:37;2.80;;;2.10;;
7919;SDS011;18778;47.610;9.776;2023-07-30T08:04:23;3.00;;;1.87;;
7919;SDS011;18778;47.610;9.776;2023-07-30T08:06:48;2.37;;;2.03;;
7919;SDS011;18778;47.610;9.776;2023-07-30T08:09:14;2.30;;;2.20;;
7919;SDS011;18778;47.610;9.776;2023-07-30T08:11:40;3.33;;;2.13;;
7919;SDS011;18778;47.610;9.776;2023-07-30T08:14:05;1.90;;;1.70;;
7919;SDS011;18778;47.610;9.776;2023-07-30T08:16:31;2.10;;;1.90;;
7919;SDS011;18778;47.610;9.776;2023-07-30T08:18:56;1.90;;;1.80;;
7919;SDS011;18778;47.610;9.776;2023-07-30T08:21:22;2.40;;;2.20;;
7919;SDS011;18778;47.610;9.776;2023-07-30T08:23:47;2.10;;;2.00;;
7919;SDS011;18778;47.610;9.776;2023-07-30T08:26:13;2.30;;;2.10;;
7919;SDS011;18778;47.610;9.776;2023-07-30T08:28:39;2.37;;;2.17;;
7919;SDS011;18778;47.610;9.776;2023-07-30T08:31:05;2.93;;;1.97;;
7919;SDS011;18778;47.610;9.776;2023-07-30T08:33:31;2.33;;;2.00;;
7919;SDS011;18778;47.610;9.776;2023-07-30T08:35:58;2.60;;;2.40;;
7919;SDS011;18778;47.610;9.776;2023-07-30T08:38:24;2.27;;;2.17;;
7919;SDS011;18778;47.610;9.776;2023-07-30T08:40:50;2.10;;;2.00;;
7919;SDS011;18778;47.610;9.776;2023-07-30T08:43:16;2.77;;;2.43;;
7919;SDS011;18778;47.610;9.776;2023-07-30T08:45:45;2.10;;;2.00;;
7919;SDS011;18778;47.610;9.776;2023-07-30T08:48:10;2.10;;;2.00;;
7919;SDS011;18778;47.610;9.776;2023-07-30T08:50:36;2.40;;;2.20;;
7919;SDS011;18778;47.610;9.776;2023-07-30T08:53:02;2.23;;;2.13;;
7919;SDS011;18778;47.610;9.776;2023-07-30T08:55:28;2.63;;;2.13;;
7919;SDS011;18778;47.610;9.776;2023-07-30T08:57:57;2.27;;;2.10;;
7919;SDS011;18778;47.610;9.776;2023-07-30T09:00:25;2.70;;;2.13;;
7919;SDS011;18778;47.610;9.776;2023-07-30T09:02:58;2.00;;;1.90;;
7919;SDS011;18778;47.610;9.776;2023-07-30T09:05:25;2.23;;;2.07;;
7919;SDS011;18778;47.610;9.776;2023-07-30T09:07:54;1.83;;;1.70;;
7919;SDS011;18778;47.610;9.776;2023-07-30T09:10:20;1.80;;;1.70;;
7919;SDS011;18778;47.610;9.776;2023-07-30T09:12:46;2.70;;;2.10;;
7919;SDS011;18778;47.610;9.776;2023-07-30T09:15:18;2.00;;;1.90;;
7919;SDS011;18778;47.610;9.776;2023-07-30T09:17:54;1.73;;;1.63;;
7919;SDS011;18778;47.610;9.776;2023-07-30T09:20:20;2.03;;;1.87;;
7919;SDS011;18778;47.610;9.776;2023-07-30T09:22:46;1.80;;;1.70;;
7919;SDS011;18778;47.610;9.776;2023-07-30T09:25:13;1.70;;;1.60;;
7919;SDS011;18778;47.610;9.776;2023-07-30T09:27:41;2.00;;;1.80;;
7919;SDS011;18778;47.610;9.776;2023-07-30T09:30:06;1.77;;;1.67;;
7919;SDS011;18778;47.610;9.776;2023-07-30T09:32:33;2.63;;;1.77;;
7919;SDS011;18778;47.610;9.776;2023-07-30T09:35:03;2.37;;;1.70;;
7919;SDS011;18778;47.610;9.776;2023-07-30T09:37:31;2.30;;;1.73;;
7919;SDS011;18778;47.610;9.776;2023-07-30T09:39:58;1.73;;;1.63;;
7919;SDS011;18778;47.610;9.776;2023-07-30T09:42:27;1.60;;;1.50;;
7919;SDS011;18778;47.610;9.776;2023-07-30T09:44:53;1.67;;;1.40;;
7919;SDS011;18778;47.610;9.776;2023-07-30T09:47:18;1.60;;;1.47;;
7919;SDS011;18778;47.610;9.776;2023-07-30T09:49:44;1.73;;;1.60;;
7919;SDS011;18778;47.610;9.776;2023-07-30T09:52:09;1.43;;;1.37;;
7919;SDS011;18778;47.610;9.776;2023-07-30T09:54:36;1.63;;;1.53;;
7919;SDS011;18778;47.610;9.776;2023-07-30T09:57:04;1.60;;;1.50;;
7919;SDS011;18778;47.610;9.776;2023-07-30T09:59:30;1.80;;;1.23;;
7919;SDS011;18778;47.610;9.776;2023-07-30T10:01:55;1.70;;;1.60;;
7919;SDS011;18778;47.610;9.776;2023-07-30T10:04:23;1.70;;;1.60;;
7919;SDS011;18778;47.610;9.776;2023-07-30T10:09:19;1.33;;;1.30;;
7919;SDS011;18778;47.610;9.776;2023-07-30T10:11:46;1.57;;;1.47;;
7919;SDS011;18778;47.610;9.776;2023-07-30T10:14:15;1.70;;;1.60;;
7919;SDS011;18778;47.610;9.776;2023-07-30T10:16:52;1.83;;;1.33;;
7919;SDS011;18778;47.610;9.776;2023-07-30T10:19:21;1.40;;;1.30;;
7919;SDS011;18778;47.610;9.776;2023-07-30T10:21:48;1.40;;;1.30;;
7919;SDS011;18778;47.610;9.776;2023-07-30T10:24:13;1.30;;;1.30;;
7919;SDS011;18778;47.610;9.776;2023-07-30T10:26:39;1.40;;;1.30;;
7919;SDS011;18778;47.610;9.776;2023-07-30T10:29:17;1.53;;;1.43;;
7919;SDS011;18778;47.610;9.776;2023-07-30T10:31:48;1.27;;;1.23;;
7919;SDS011;18778;47.610;9.776;2023-07-30T10:34:19;1.90;;;1.80;;
7919;SDS011;18778;47.610;9.776;2023-07-30T10:36:46;1.77;;;1.40;;
7919;SDS011;18778;47.610;9.776;2023-07-30T10:39:14;1.70;;;1.60;;
7919;SDS011;18778;47.610;9.776;2023-07-30T10:41:42;1.60;;;1.33;;
7919;SDS011;18778;47.610;9.776;2023-07-30T10:44:30;1.30;;;1.20;;
7919;SDS011;18778;47.610;9.776;2023-07-30T10:46:58;1.50;;;1.40;;
7919;SDS011;18778;47.610;9.776;2023-07-30T10:49:25;1.20;;;1.20;;
7919;SDS011;18778;47.610;9.776;2023-07-30T10:51:51;1.40;;;1.30;;
7919;SDS011;18778;47.610;9.776;2023-07-30T10:54:19;1.57;;;1.47;;
7919;SDS011;18778;47.610;9.776;2023-07-30T10:56:45;1.67;;;1.27;;
7919;SDS011;18778;47.610;9.776;2023-07-30T10:59:12;1.50;;;1.40;;
7919;SDS011;18778;47.610;9.776;2023-07-30T11:01:40;3.47;;;1.17;;
7919;SDS011;18778;47.610;9.776;2023-07-30T11:04:08;1.23;;;1.23;;
7919;SDS011;18778;47.610;9.776;2023-07-30T11:06:35;1.50;;;1.40;;
7919;SDS011;18778;47.610;9.776;2023-07-30T11:09:01;1.53;;;1.30;;
7919;SDS011;18778;47.610;9.776;2023-07-30T11:11:26;1.63;;;1.50;;
7919;SDS011;18778;47.610;9.776;2023-07-30T11:13:52;1.93;;;1.83;;
7919;SDS011;18778;47.610;9.776;2023-07-30T11:16:18;1.60;;;1.50;;
7919;SDS011;18778;47.610;9.776;2023-07-30T11:18:43;1.60;;;1.50;;
7919;SDS011;18778;47.610;9.776;2023-07-30T11:21:12;1.43;;;1.40;;
7919;SDS011;18778;47.610;9.776;2023-07-30T11:23:41;1.73;;;1.63;;
7919;SDS011;18778;47.610;9.776;2023-07-30T11:26:08;1.60;;;1.50;;
7919;SDS011;18778;47.610;9.776;2023-07-30T11:28:38;1.60;;;1.50;;
7919;SDS011;18778;47.610;9.776;2023-07-30T11:31:05;1.63;;;1.53;;
7919;SDS011;18778;47.610;9.776;2023-07-30T11:33:36;1.57;;;1.40;;
7919;SDS011;18778;47.610;9.776;2023-07-30T11:36:03;2.33;;;1.43;;
7919;SDS011;18778;47.610;9.776;2023-07-30T11:38:30;2.43;;;1.47;;
7919;SDS011;18778;47.610;9.776;2023-07-30T11:40:56;1.70;;;1.60;;
7919;SDS011;18778;47.610;9.776;2023-07-30T11:43:22;1.63;;;1.53;;
7919;SDS011;18778;47.610;9.776;2023-07-30T11:45:49;1.83;;;1.70;;
7919;SDS011;18778;47.610;9.776;2023-07-30T11:48:30;3.13;;;1.67;;
7919;SDS011;18778;47.610;9.776;2023-07-30T11:50:56;2.13;;;1.80;;
7919;SDS011;18778;47.610;9.776;2023-07-30T11:53:21;3.23;;;1.73;;
7919;SDS011;18778;47.610;9.776;2023-07-30T11:55:47;1.97;;;1.50;;
7919;SDS011;18778;47.610;9.776;2023-07-30T11:58:13;1.60;;;1.47;;
7919;SDS011;18778;47.610;9.776;2023-07-30T12:00:39;2.00;;;1.60;;
7919;SDS011;18778;47.610;9.776;2023-07-30T12:03:08;2.53;;;1.50;;
7919;SDS011;18778;47.610;9.776;2023-07-30T12:05:37;4.17;;;1.60;;
7919;SDS011;18778;47.610;9.776;2023-07-30T12:08:04;1.60;;;1.50;;
7919;SDS011;18778;47.610;9.776;2023-07-30T12:10:47;2.13;;;1.40;;
7919;SDS011;18778;47.610;9.776;2023-07-30T12:13:18;1.40;;;1.30;;
7919;SDS011;18778;47.610;9.776;2023-07-30T12:15:51;1.53;;;1.43;;
7919;SDS011;18778;47.610;9.776;2023-07-30T12:18:17;4.90;;;1.70;;
7919;SDS011;18778;47.610;9.776;2023-07-30T12:20:44;1.87;;;1.77;;
7919;SDS011;18778;47.610;9.776;2023-07-30T12:23:09;1.70;;;1.60;;
7919;SDS011;18778;47.610;9.776;2023-07-30T12:25:35;2.53;;;1.43;;
7919;SDS011;18778;47.610;9.776;2023-07-30T12:28:00;2.10;;;1.30;;
7919;SDS011;18778;47.610;9.776;2023-07-30T12:30:26;1.80;;;1.70;;
7919;SDS011;18778;47.610;9.776;2023-07-30T12:32:52;1.90;;;1.57;;
7919;SDS011;18778;47.610;9.776;2023-07-30T12:35:19;1.83;;;1.40;;
7919;SDS011;18778;47.610;9.776;2023-07-30T12:37:44;1.70;;;1.53;;
7919;SDS011;18778;47.610;9.776;2023-07-30T12:40:10;1.70;;;1.60;;
7919;SDS011;18778;47.610;9.776;2023-07-30T12:42:36;1.70;;;1.60;;
7919;SDS011;18778;47.610;9.776;2023-07-30T12:45:01;4.13;;;1.70;;
7919;SDS011;18778;47.610;9.776;2023-07-30T12:47:27;1.73;;;1.63;;
7919;SDS011;18778;47.610;9.776;2023-07-30T12:49:53;1.70;;;1.60;;
7919;SDS011;18778;47.610;9.776;2023-07-30T12:52:18;2.77;;;1.93;;
7919;SDS011;18778;47.610;9.776;2023-07-30T12:54:44;1.53;;;1.43;;
7919;SDS011;18778;47.610;9.776;2023-07-30T12:57:09;2.07;;;1.60;;
7919;SDS011;18778;47.610;9.776;2023-07-30T12:59:35;2.10;;;1.90;;
7919;SDS011;18778;47.610;9.776;2023-07-30T13:02:01;1.50;;;1.40;;
7919;SDS011;18778;47.610;9.776;2023-07-30T13:04:27;1.83;;;1.70;;
7919;SDS011;18778;47.610;9.776;2023-07-30T13:06:52;1.53;;;1.43;;
7919;SDS011;18778;47.610;9.776;2023-07-30T13:09:19;1.83;;;1.50;;
7919;SDS011;18778;47.610;9.776;2023-07-30T13:11:45;2.90;;;1.50;;
7919;SDS011;18778;47.610;9.776;2023-07-30T13:14:11;1.90;;;1.77;;
7919;SDS011;18778;47.610;9.776;2023-07-30T13:16:36;1.50;;;1.40;;
7919;SDS011;18778;47.610;9.776;2023-07-30T13:19:02;1.67;;;1.57;;
7919;SDS011;18778;47.610;9.776;2023-07-30T13:21:27;1.80;;;1.70;;
7919;SDS011;18778;47.610;9.776;2023-07-30T13:23:53;1.80;;;1.70;;
7919;SDS011;18778;47.610;9.776;2023-07-30T13:26:19;1.53;;;1.43;;
7919;SDS011;18778;47.610;9.776;2023-07-30T13:28:44;2.10;;;1.50;;
7919;SDS011;18778;47.610;9.776;2023-07-30T13:31:10;1.97;;;1.40;;
7919;SDS011;18778;47.610;9.776;2023-07-30T13:33:36;1.87;;;1.70;;
7919;SDS011;18778;47.610;9.776;2023-07-30T13:36:02;1.70;;;1.60;;
7919;SDS011;18778;47.610;9.776;2023-07-30T13:38:28;1.87;;;1.70;;
7919;SDS011;18778;47.610;9.776;2023-07-30T13:40:53;2.43;;;1.50;;
7919;SDS011;18778;47.610;9.776;2023-07-30T13:43:19;1.70;;;1.60;;
7919;SDS011;18778;47.610;9.776;2023-07-30T13:45:45;2.23;;;1.53;;
7919;SDS011;18778;47.610;9.776;2023-07-30T13:48:15;1.90;;;1.73;;
7919;SDS011;18778;47.610;9.776;2023-07-30T13:50:40;1.70;;;1.60;;
7919;SDS011;18778;47.610;9.776;2023-07-30T13:53:06;1.97;;;1.50;;
7919;SDS011;18778;47.610;9.776;2023-07-30T13:55:32;2.37;;;1.40;;
7919;SDS011;18778;47.610;9.776;2023-07-30T13:57:57;1.93;;;1.80;;
7919;SDS011;18778;47.610;9.776;2023-07-30T14:00:23;2.40;;;1.97;;
7919;SDS011;18778;47.610;9.776;2023-07-30T14:02:48;2.23;;;1.60;;
7919;SDS011;18778;47.610;9.776;2023-07-30T14:05:15;2.23;;;1.70;;
7919;SDS011;18778;47.610;9.776;2023-07-30T14:07:41;1.97;;;1.87;;
7919;SDS011;18778;47.610;9.776;2023-07-30T14:10:07;1.73;;;1.60;;
7919;SDS011;18778;47.610;9.776;2023-07-30T14:12:34;2.60;;;1.50;;
7919;SDS011;18778;47.610;9.776;2023-07-30T14:14:59;4.43;;;1.77;;
7919;SDS011;18778;47.610;9.776;2023-07-30T14:17:25;2.83;;;1.60;;
7919;SDS011;18778;47.610;9.776;2023-07-30T14:19:50;1.73;;;1.50;;
7919;SDS011;18778;47.610;9.776;2023-07-30T14:22:16;1.50;;;1.40;;
7919;SDS011;18778;47.610;9.776;2023-07-30T14:24:41;1.60;;;1.50;;
7919;SDS011;18778;47.610;9.776;2023-07-30T14:27:09;1.50;;;1.38;;
7919;SDS011;18778;47.610;9.776;2023-07-30T14:29:35;3.60;;;1.55;;
7919;SDS011;18778;47.610;9.776;2023-07-30T14:32:01;1.20;;;1.10;;
7919;SDS011;18778;47.610;9.776;2023-07-30T14:34:26;1.58;;;1.48;;
7919;SDS011;18778;47.610;9.776;2023-07-30T14:36:52;2.75;;;1.50;;
7919;SDS011;18778;47.610;9.776;2023-07-30T14:39:21;1.48;;;1.20;;
7919;SDS011;18778;47.610;9.776;2023-07-30T14:41:46;2.13;;;1.65;;
7919;SDS011;18778;47.610;9.776;2023-07-30T14:44:12;1.23;;;1.23;;
7919;SDS011;18778;47.610;9.776;2023-07-30T14:46:37;2.65;;;1.42;;
7919;SDS011;18778;47.610;9.776;2023-07-30T14:49:04;2.22;;;1.50;;
7919;SDS011;18778;47.610;9.776;2023-07-30T14:51:29;1.40;;;1.30;;
7919;SDS011;18778;47.610;9.776;2023-07-30T14:53:55;1.50;;;1.30;;
7919;SDS011;18778;47.610;9.776;2023-07-30T14:56:20;1.52;;;1.42;;
7919;SDS011;18778;47.610;9.776;2023-07-30T14:58:46;1.45;;;1.35;;